Arlanda current weather conditions

sailwx.info

Wind from 060 at 9 knots

Air temperature 1.0° C
Visibility: greater than 2.7 NM
Dewpoint 1.0° C
Present weather: Light snow.

Last reported at 2015-Jan-31 10:20 UTC.
Time now 2015-Jan-31 11:41 UTC

Location: N 59°39' E 017°56'.
View on Google Maps.

See reports from other nearby stations

  
Tides and Currents Weather Stations Pressure Air Temp Water Temp Dewpoint Dewpoint Depression Visibility Wind Speed Wind Dir Waves Ship Positions
date/time (UTC)wind fromknots sea level pressurealtimeterstation pressurevisibilityair tempwater tempwave heightnotes
2015-Jan-31 10:20 060 9 2.7 1.0 Light snow.
2015-Jan-31 09:50 070 9 2.7 1.0 Light snow.
2015-Jan-31 09:20 070 8 2.4-0.0 Light snow.
2015-Jan-31 08:50 070 8 2.7-0.0 Snow.
2015-Jan-31 08:20 070 9 1.0-0.0 Snow.
2015-Jan-31 07:50 070 9 1.6-0.0 Snow.
2015-Jan-31 07:20 070 8 1.3-0.0 Light snow.
2015-Jan-31 06:50 070 9 1.3-0.0 Snow.
2015-Jan-31 06:20 070 9 0.5-0.0 Snow.
2015-Jan-31 05:50 070 9 1.1-0.0 Snow.
2015-Jan-31 05:20 070 10 1.3-0.0 Light snow.
2015-Jan-31 04:50 070 10 1.9-0.0 Light snow.
2015-Jan-31 04:20 070 11 1.9-0.0 Light snow.
2015-Jan-31 03:50 070 11 1.9-0.0 Light snow.
2015-Jan-31 03:20 060 12 1.9-0.0 Light snow.
2015-Jan-31 02:50 060 10 1.9-0.0 Light snow.
2015-Jan-31 02:20 070 10 1.9 1.0 Light snow.
2015-Jan-31 01:50 080 11 2.4 1.0 Light snow.
2015-Jan-31 01:20 080 10 2.2 1.0 Light snow.
2015-Jan-31 00:50 060 10 1.6 1.0 Light snow.
2015-Jan-31 00:20 060 10 2.7 1.0 Light snow.
2015-Jan-30 23:50 060 10 5.4 1.0
2015-Jan-30 23:20 070 10 5.4 1.0
2015-Jan-30 22:50 070 11 5.4 1.0
2015-Jan-30 22:20 080 10 5.4-0.0
2015-Jan-30 21:50 080 10 5.4 1.0
2015-Jan-30 21:20 090 9 5.4 1.0
2015-Jan-30 20:50 100 9 5.4 1.0
2015-Jan-30 20:20 090 9 2.3-0.0 Light snow.
2015-Jan-30 19:50 100 9 2.2-0.0 Light snow.
2015-Jan-30 19:20 090 8 1.4-0.0 Light snow.
2015-Jan-30 18:50 100 7 1.3 1.0 Light rain snow.
2015-Jan-30 18:20 110 8 1.8 1.0 Light rain snow.
2015-Jan-30 17:50 110 8 5.4 1.0
2015-Jan-30 17:20 110 8 5.4 1.0
2015-Jan-30 16:50 090 7 1.0
2015-Jan-30 16:20 090 6 1.0
2015-Jan-30 15:50 100 6 5.4 1.0
2015-Jan-30 15:20 100 6 5.4 1.0
2015-Jan-30 14:50 100 6 5.4 1.0
2015-Jan-30 14:20 100 5 5.4 1.0
2015-Jan-30 13:50 130 5 5.4 2.0
2015-Jan-30 13:20 150 6 5.4 2.0 Showers in the vicinity.
2015-Jan-30 12:50 140 6 gusting 18 5.4 2.0 Showers in the vicinity.
2015-Jan-30 12:20 170 8 5.4 2.0
2015-Jan-30 11:50 150 7 5.4 2.0
2015-Jan-30 11:20 140 7 5.4 1.0
2015-Jan-30 10:50 140 6 5.4 1.0
2015-Jan-30 10:20 130 5 5.4 1.0
2015-Jan-30 09:50 140 7 5.4 1.0
2015-Jan-30 09:20 140 7 5.4-0.0
2015-Jan-30 08:50 150 7 5.4-0.0
2015-Jan-30 08:20 120 5 5.4-0.0
2015-Jan-30 07:50 130 5 5.4-1.0
2015-Jan-30 07:20 140 7 -0.0
2015-Jan-30 06:50 150 8 5.4-0.0
2015-Jan-30 06:20 130 7 -0.0
2015-Jan-30 05:50 140 7 5.4-0.0
2015-Jan-30 05:20 140 7 5.4-0.0
2015-Jan-30 04:50 150 8 4.3-0.0 Light snow showers.
2015-Jan-30 04:20 150 7 4.9-0.0 Light snow.
2015-Jan-30 03:50 150 8 5.4-0.0
2015-Jan-30 03:20 160 9 5.4-0.0
2015-Jan-30 02:50 160 11 5.4-0.0
2015-Jan-30 02:20 140 7 5.4-0.0
2015-Jan-30 01:50 140 7 5.4-0.0
2015-Jan-30 01:20 150 9 5.4-0.0
2015-Jan-30 00:50 140 7 5.4-0.0
2015-Jan-30 00:20 170 9 5.4-0.0
2015-Jan-29 23:50 160 9 5.4-0.0
2015-Jan-29 23:20 160 9 5.4-0.0
2015-Jan-29 22:50 160 10 5.4-0.0
2015-Jan-29 22:20 150 9 5.4-0.0
2015-Jan-29 21:50 160 8 5.4-0.0
2015-Jan-29 21:20 160 11 -0.0
2015-Jan-29 20:50 150 8 -0.0
2015-Jan-29 20:20 150 8 -0.0
2015-Jan-29 19:50 170 9 1.0
2015-Jan-29 19:20 170 10 1.0
2015-Jan-29 18:50 180 13 1.0
2015-Jan-29 18:20 180 12 1.0
2015-Jan-29 17:50 180 14 1.0
2015-Jan-29 17:20 180 14 5.4 2.0
2015-Jan-29 16:50 190 15 5.4 1.0
2015-Jan-29 16:20 190 15 4.3 2.0 Light snow.
2015-Jan-29 15:50 190 14 5.4 2.0 Light snow.
2015-Jan-29 15:20 170 14 5.4 2.0
2015-Jan-29 14:50 170 15 5.4 2.0
2015-Jan-29 14:20 180 14 5.4 2.0
2015-Jan-29 13:50 180 14 5.4 2.0
2015-Jan-29 13:20 180 17 5.4 2.0
2015-Jan-29 12:50 180 12 5.4 2.0
2015-Jan-29 12:20 180 14 5.4 2.0
2015-Jan-29 11:50 180 16 1.9 2.0 Light snow showers.
2015-Jan-29 11:20 190 16 1.9 1.0 Snow.